createdAt,value
2024-02-01T00:03:20.625Z,2.73
2024-02-01T00:08:23.936Z,3.67
2024-02-01T00:13:27.841Z,3.22
2024-02-01T00:18:31.294Z,3.90
2024-02-01T00:23:34.714Z,4.10
2024-02-01T00:28:38.022Z,3.42
2024-02-01T00:33:43.069Z,3.45
2024-02-01T00:38:47.004Z,5.00
2024-02-01T00:43:50.886Z,3.97
2024-02-01T00:48:54.515Z,3.80
2024-02-01T00:53:58.081Z,3.97
2024-02-01T00:59:01.588Z,3.92
2024-02-01T01:04:05.000Z,3.80
2024-02-01T01:09:08.459Z,3.45
2024-02-01T01:14:12.020Z,3.10
2024-02-01T01:19:15.817Z,3.55
2024-02-01T01:24:19.366Z,3.63
2024-02-01T01:29:22.774Z,3.30
2024-02-01T01:34:26.119Z,3.67
2024-02-01T01:39:29.434Z,3.50
2024-02-01T01:44:32.835Z,3.45
2024-02-01T01:49:37.172Z,2.60
2024-02-01T01:54:41.740Z,3.63
2024-02-01T01:59:45.249Z,3.35
2024-02-01T02:04:52.720Z,2.38
2024-02-01T02:10:02.444Z,2.00
2024-02-01T02:15:07.715Z,2.70
2024-02-01T02:20:20.392Z,2.35
2024-02-01T02:25:25.188Z,3.38
2024-02-01T02:30:29.270Z,2.50
2024-02-01T02:35:32.845Z,2.78
2024-02-01T02:45:40.023Z,2.40
2024-02-01T02:50:45.303Z,3.13
2024-02-01T02:55:48.688Z,3.20
2024-02-01T03:00:52.713Z,3.15
2024-02-01T03:05:56.310Z,2.97
2024-02-01T03:10:59.626Z,2.35
2024-02-01T03:16:03.444Z,2.67
2024-02-01T03:21:11.373Z,3.00
2024-02-01T03:26:15.613Z,3.25
2024-02-01T03:31:20.619Z,3.58
2024-02-01T03:36:25.068Z,2.05
2024-02-01T03:41:28.387Z,2.95
2024-02-01T03:46:31.835Z,3.10
2024-02-01T03:51:37.610Z,3.08
2024-02-01T03:56:40.992Z,2.80
2024-02-01T04:01:45.043Z,2.38
2024-02-01T04:06:48.589Z,2.88
2024-02-01T04:16:57.170Z,2.37
2024-02-01T04:22:01.435Z,2.80
2024-02-01T04:27:05.768Z,2.30
2024-02-01T04:32:09.196Z,2.67
2024-02-01T04:37:15.356Z,2.63
2024-02-01T04:42:20.600Z,2.83
2024-02-01T04:47:24.075Z,1.67
2024-02-01T04:52:28.011Z,1.95
2024-02-01T04:57:32.111Z,2.88
2024-02-01T05:02:35.698Z,1.90
2024-02-01T05:12:43.058Z,2.65
2024-02-01T05:17:46.639Z,1.63
2024-02-01T05:22:50.381Z,1.77
2024-02-01T05:32:58.659Z,2.30
2024-02-01T05:38:02.997Z,3.47
2024-02-01T05:43:08.775Z,6.55
2024-02-01T05:48:14.280Z,8.88
2024-02-01T05:53:18.392Z,16.30
2024-02-01T05:58:21.758Z,12.23
2024-02-01T06:03:25.963Z,8.05
2024-02-01T06:08:29.480Z,7.72
2024-02-01T06:13:32.876Z,6.55
2024-02-01T06:23:41.525Z,5.57
2024-02-01T06:28:44.919Z,6.63
2024-02-01T06:33:52.612Z,3.10
2024-02-01T06:39:02.248Z,3.92
2024-02-01T06:44:08.656Z,3.50
2024-02-01T06:49:20.541Z,4.20
2024-02-01T06:54:41.458Z,3.05
2024-02-01T07:00:04.842Z,4.03
2024-02-01T07:05:23.482Z,3.10
2024-02-01T07:10:34.393Z,4.47
2024-02-01T07:15:40.276Z,4.00
2024-02-01T07:20:53.150Z,3.45
2024-02-01T07:26:04.688Z,3.17
2024-02-01T07:31:26.782Z,3.47
2024-02-01T07:36:48.349Z,3.30
2024-02-01T07:42:10.483Z,2.60
2024-02-01T07:47:32.429Z,3.05
2024-02-01T07:52:56.366Z,3.50
2024-02-01T07:58:01.765Z,3.67
2024-02-01T08:03:13.819Z,3.42
2024-02-01T08:08:18.381Z,2.58
2024-02-01T08:13:22.324Z,4.28
2024-02-01T08:18:39.576Z,4.67
2024-02-01T08:23:43.870Z,4.28
2024-02-01T08:28:48.242Z,5.32
2024-02-01T08:33:52.563Z,5.60
2024-02-01T08:38:56.327Z,6.13
2024-02-01T08:44:00.207Z,5.53
2024-02-01T08:49:04.661Z,5.60
2024-02-01T08:54:12.787Z,5.35
2024-02-01T08:59:24.619Z,5.90
2024-02-01T09:04:28.845Z,7.07
2024-02-01T09:09:33.023Z,7.35
2024-02-01T09:14:37.657Z,6.80
2024-02-01T09:19:43.243Z,7.60
2024-02-01T09:24:46.963Z,6.22
2024-02-01T09:29:54.609Z,5.35
2024-02-01T09:34:58.718Z,5.72
2024-02-01T09:40:02.103Z,6.83
2024-02-01T09:45:07.421Z,6.00
2024-02-01T09:50:22.504Z,6.45
2024-02-01T09:55:26.805Z,5.72
2024-02-01T10:00:35.344Z,5.50
2024-02-01T10:05:38.746Z,6.95
2024-02-01T10:10:47.414Z,7.72
2024-02-01T10:15:51.286Z,7.03
2024-02-01T10:20:58.816Z,8.40
2024-02-01T10:26:02.289Z,10.68
2024-02-01T10:31:10.502Z,7.85
2024-02-01T10:36:23.506Z,8.80
2024-02-01T10:41:33.761Z,9.43
2024-02-01T10:46:46.162Z,13.57
2024-02-01T10:51:52.717Z,10.77
2024-02-01T10:57:04.042Z,13.38
2024-02-01T11:02:08.624Z,11.55
2024-02-01T11:07:19.874Z,10.85
2024-02-01T11:12:27.623Z,12.25
2024-02-01T11:17:32.930Z,10.23
2024-02-01T11:22:41.696Z,7.45
2024-02-01T11:27:48.039Z,7.15
2024-02-01T11:32:53.245Z,9.95
2024-02-01T11:38:06.563Z,6.50
2024-02-01T11:43:10.600Z,7.30
2024-02-01T11:48:18.626Z,7.37
2024-02-01T11:53:23.742Z,7.07
2024-02-01T11:58:33.440Z,7.35
2024-02-01T12:03:39.479Z,6.45
2024-02-01T12:08:43.331Z,7.50
2024-02-01T12:13:49.833Z,7.07
2024-02-01T12:18:56.889Z,7.03
2024-02-01T12:24:03.631Z,7.55
2024-02-01T12:29:07.921Z,8.50
2024-02-01T12:34:15.168Z,6.40
2024-02-01T12:39:19.969Z,7.63
2024-02-01T12:44:23.281Z,7.72
2024-02-01T12:49:27.432Z,6.97
2024-02-01T12:54:30.886Z,6.47
2024-02-01T12:59:38.940Z,7.35
2024-02-01T13:04:42.573Z,5.60
2024-02-01T13:09:45.852Z,6.38
2024-02-01T13:15:02.844Z,6.07
2024-02-01T13:20:27.582Z,6.15
2024-02-01T13:25:31.219Z,5.40
2024-02-01T13:30:35.980Z,5.82
2024-02-01T13:40:45.281Z,6.87
2024-02-01T13:45:50.180Z,5.95
2024-02-01T13:50:56.112Z,6.95
2024-02-01T13:56:00.176Z,6.22
2024-02-01T14:01:04.634Z,6.10
2024-02-01T14:06:08.276Z,6.90
2024-02-01T14:11:13.082Z,6.82
2024-02-01T14:21:20.358Z,6.10
2024-02-01T14:26:24.685Z,6.13
2024-02-01T14:31:28.941Z,6.97
2024-02-01T14:36:32.760Z,5.88
2024-02-01T14:41:37.452Z,6.18
2024-02-01T14:46:41.416Z,5.82
2024-02-01T14:51:45.397Z,6.13
2024-02-01T14:56:49.250Z,7.17
2024-02-01T15:01:53.678Z,5.60
2024-02-01T15:06:57.421Z,6.03
2024-02-01T15:12:02.252Z,6.57
2024-02-01T15:22:11.436Z,7.13
2024-02-01T15:27:16.836Z,6.93
2024-02-01T15:32:20.913Z,6.80
2024-02-01T15:37:24.238Z,8.27
2024-02-01T15:42:28.928Z,7.07
2024-02-01T15:47:42.834Z,6.45
2024-02-01T15:52:51.708Z,7.68
2024-02-01T15:57:57.404Z,8.30
2024-02-01T16:03:01.800Z,12.13
2024-02-01T16:13:10.112Z,10.32
2024-02-01T16:18:44.767Z,10.63
2024-02-01T16:23:48.813Z,9.32
2024-02-01T16:28:53.234Z,9.45
2024-02-01T16:34:12.700Z,8.82
2024-02-01T16:39:25.123Z,13.82
2024-02-01T16:44:48.494Z,16.58
2024-02-01T16:49:52.787Z,15.13
2024-02-01T16:54:56.525Z,12.75
2024-02-01T17:00:00.309Z,13.73
2024-02-01T17:05:08.825Z,12.18
2024-02-01T17:10:37.485Z,10.65
2024-02-01T17:15:42.187Z,11.55
2024-02-01T17:20:47.351Z,12.38
2024-02-01T17:26:17.033Z,10.52
2024-02-01T17:31:36.981Z,9.98
2024-02-01T17:36:40.923Z,10.73
2024-02-01T17:41:51.172Z,10.88
2024-02-01T17:46:56.850Z,12.32
2024-02-01T17:52:00.733Z,11.77
2024-02-01T18:02:21.849Z,10.63
2024-02-01T18:07:28.601Z,10.30
2024-02-01T18:12:42.558Z,11.10
2024-02-01T18:17:46.586Z,10.63
2024-02-01T18:27:54.065Z,8.13
2024-02-01T18:33:01.021Z,9.27
2024-02-01T18:38:19.531Z,8.20
2024-02-01T18:43:32.750Z,6.90
2024-02-01T18:48:41.653Z,8.65
2024-02-01T18:53:46.700Z,12.27
2024-02-01T18:58:50.584Z,12.50
2024-02-01T19:04:22.243Z,11.23
2024-02-01T19:09:43.565Z,10.80
2024-02-01T19:14:57.794Z,12.23
2024-02-01T19:20:07.432Z,11.23
2024-02-01T19:25:14.108Z,11.45
2024-02-01T19:30:35.643Z,12.98
2024-02-01T19:35:40.003Z,10.07
2024-02-01T19:45:52.120Z,11.95
2024-02-01T19:50:59.956Z,11.90
2024-02-01T19:56:03.811Z,9.32
2024-02-01T20:01:07.630Z,11.40
2024-02-01T20:06:17.850Z,11.63
2024-02-01T20:11:21.643Z,9.75
2024-02-01T20:16:25.733Z,9.60
2024-02-01T20:21:35.205Z,9.18
2024-02-01T20:26:40.255Z,9.15
2024-02-01T20:31:45.107Z,11.77
2024-02-01T20:36:53.931Z,11.82
2024-02-01T20:41:59.950Z,11.52
2024-02-01T20:47:15.613Z,11.52
2024-02-01T20:52:29.299Z,10.07
2024-02-01T20:57:37.456Z,10.43
2024-02-01T21:03:02.145Z,8.02
2024-02-01T21:08:12.130Z,9.82
2024-02-01T21:13:18.509Z,10.98
2024-02-01T21:18:24.700Z,10.60
2024-02-01T21:23:59.101Z,12.70
2024-02-01T21:29:27.742Z,10.98
2024-02-01T21:34:38.562Z,9.57
2024-02-01T21:40:02.995Z,10.80
2024-02-01T21:45:07.536Z,9.70
2024-02-01T21:50:12.581Z,10.95
2024-02-01T21:55:16.804Z,10.95
2024-02-01T22:00:21.074Z,12.98
2024-02-01T22:05:25.775Z,13.30
2024-02-01T22:10:30.039Z,10.13
2024-02-01T22:15:34.917Z,10.23
2024-02-01T22:20:39.511Z,11.20
2024-02-01T22:25:42.797Z,9.57
2024-02-01T22:30:47.858Z,10.77
2024-02-01T22:35:52.246Z,11.85
2024-02-01T22:40:56.512Z,11.63
2024-02-01T22:51:04.599Z,8.63
2024-02-01T22:56:08.362Z,9.90
2024-02-01T23:01:12.716Z,9.40
2024-02-01T23:06:17.174Z,9.43
2024-02-01T23:11:21.868Z,14.93
2024-02-01T23:16:26.313Z,12.00
2024-02-01T23:21:30.837Z,9.90
2024-02-01T23:26:34.480Z,10.07
2024-02-01T23:31:39.078Z,9.13
2024-02-01T23:36:43.353Z,9.82
2024-02-01T23:41:47.968Z,9.13
2024-02-01T23:46:52.301Z,9.63
2024-02-01T23:56:59.787Z,8.03
